Xunlong5 — BYGW — position and weather

sailwx.info

Track history (hours):
 
Tides and Currents Weather Stations Pressure Air Temp Water Temp Dewpoint Dewpoint Depression Visibility Wind Speed Wind Dir Waves Ship Positions

Xunlong5

Last reported at 2015-Jun-30 12:19 UTC. Time now 2015-Jun-30 14:28 UTC.
Position N 22°10' E 113°35'.

Length 34 m; draft 1.4 m.

Type: High speed craft. MMSI: 413471870.

Date/timePositionNaut miles runAvg speedWind from/ knotsBaromVisibWave heightAir tempDewpointWater temp
2015-Jun-30 12:19N 22°10' E 113°35'2 0.8
2015-Jun-30 09:31N 22°12' E 113°34'0 0.0
2015-Jun-30 06:33N 22°12' E 113°34'2 0.7
2015-Jun-30 03:32N 22°10' E 113°35'6 2.0
2015-Jun-30 00:34N 22°15' E 113°39'6 0.5
2015-Jun-29 12:17N 22°10' E 113°35'2 0.7
2015-Jun-29 09:28N 22°12' E 113°34'6 2.4
2015-Jun-29 07:04N 22°15' E 113°39'6 8.2
2015-Jun-29 06:21N 22°12' E 113°34'2 0.6
2015-Jun-29 03:13N 22°10' E 113°35'1 0.2
2015-Jun-29 00:21N 22°10' E 113°35'1 0.1
2015-Jun-28 12:31N 22°10' E 113°35'7 2.9
2015-Jun-28 10:12N 22°16' E 113°39'5 6.6
2015-Jun-28 09:24N 22°11' E 113°37'3 1.0
2015-Jun-28 06:17N 22°12' E 113°34'2 0.7
2015-Jun-28 03:16N 22°10' E 113°35'3 1.3
2015-Jun-28 00:31N 22°11' E 113°38'4 3.3
2015-Jun-27 23:25N 22°10' E 113°35'0 0.0
2015-Jun-27 12:24N 22°10' E 113°35'7 3.2
2015-Jun-27 10:05N 22°16' E 113°39'712.1
2015-Jun-27 09:33N 22°12' E 113°34'0 0.0
2015-Jun-27 06:31N 22°12' E 113°34'2 0.7
2015-Jun-27 03:32N 22°10' E 113°35'3 0.8
2015-Jun-27 00:26N 22°10' E 113°38'2 0.3
2015-Jun-26 17:28N 22°11' E 113°35'1 0.4
2015-Jun-26 16:06N 22°11' E 113°36'0 0.5
2015-Jun-26 15:30N 22°11' E 113°36'0 0.4
2015-Jun-26 14:30N 22°11' E 113°37'0 0.4
2015-Jun-26 13:30N 22°11' E 113°37'0 0.4
2015-Jun-26 12:26N 22°11' E 113°37'0 0.4
2015-Jun-26 11:33N 22°12' E 113°37'0 0.4
2015-Jun-26 10:33N 22°12' E 113°38'0 0.4
2015-Jun-26 09:33N 22°12' E 113°38'4 1.6
2015-Jun-26 07:03N 22°16' E 113°39'612.5
2015-Jun-26 06:32N 22°12' E 113°34'2 0.7
2015-Jun-26 03:32N 22°10' E 113°35'4 1.4
2015-Jun-26 00:32N 22°12' E 113°39'4 0.4
2015-Jun-25 12:33N 22°10' E 113°35'2221.2
2015-Jun-25 11:30N 22°25' E 113°53'4 4.4
2015-Jun-25 10:31N 22°29' E 113°55'0 0.0
2015-Jun-25 09:31N 22°29' E 113°55'1717.1
2015-Jun-25 08:30N 22°14' E 113°44'6 6.1
2015-Jun-25 07:32N 22°12' E 113°38'2323.4
2015-Jun-25 06:33N 22°29' E 113°55'1310.1
2015-Jun-25 05:15N 22°20' E 114°05'2 3.1
2015-Jun-25 04:34N 22°19' E 114°07'1515.0
2015-Jun-25 03:34N 22°29' E 113°55'2424.1
2015-Jun-25 02:33N 22°11' E 113°37'6 5.8
2015-Jun-25 01:33N 22°14' E 113°42'1917.7
2015-Jun-25 00:30N 22°29' E 113°55'0 0.1
2015-Jun-24 23:30N 22°29' E 113°55'0 0.0
2015-Jun-24 22:30N 22°29' E 113°55'0 0.0
2015-Jun-24 21:30N 22°29' E 113°55'0 0.0
2015-Jun-24 20:30N 22°29' E 113°55'0 0.0
2015-Jun-24 19:30N 22°29' E 113°55'0 0.0
2015-Jun-24 18:30N 22°29' E 113°55'0 0.0
2015-Jun-24 17:30N 22°29' E 113°55'0 0.0
2015-Jun-24 16:24N 22°29' E 113°55'0 0.0
2015-Jun-24 15:30N 22°29' E 113°55'0 0.0
2015-Jun-24 14:30N 22°29' E 113°55'0 0.0
2015-Jun-24 13:30N 22°29' E 113°55'0 0.0
2015-Jun-24 12:24N 22°29' E 113°55'0 0.0
2015-Jun-24 11:30N 22°29' E 113°55'0 0.0
2015-Jun-24 10:30N 22°29' E 113°55'0 0.0
2015-Jun-24 09:33N 22°29' E 113°55'2018.5
2015-Jun-24 08:30N 22°13' E 113°41'4 4.5
2015-Jun-24 07:34N 22°11' E 113°38'2423.6
2015-Jun-24 06:33N 22°29' E 113°55'3 2.6
2015-Jun-24 05:34N 22°26' E 113°54'2423.6
2015-Jun-24 04:32N 22°10' E 113°35'1616.3
2015-Jun-24 03:33N 22°21' E 113°48'10 9.8
2015-Jun-24 02:29N 22°29' E 113°55'0 0.0
2015-Jun-24 01:29N 22°29' E 113°55'0 0.0
2015-Jun-24 00:29N 22°29' E 113°55'0 0.0
2015-Jun-23 23:29N 22°29' E 113°55'0 0.0
2015-Jun-23 22:29N 22°29' E 113°55'0 0.0
2015-Jun-23 21:29N 22°29' E 113°55'0 0.0
2015-Jun-23 20:29N 22°29' E 113°55'0 0.0
2015-Jun-23 19:29N 22°29' E 113°55'0 0.0
2015-Jun-23 19:05N 22°29' E 113°55'0 0.0
2015-Jun-22 19:29N 22°29' E 113°55'0 0.0
2015-Jun-22 18:29N 22°29' E 113°55'0 0.0
2015-Jun-22 17:29N 22°29' E 113°55'0 0.0
2015-Jun-22 16:23N 22°29' E 113°55'0 0.0
2015-Jun-22 15:29N 22°29' E 113°55'0 0.0
2015-Jun-22 14:29N 22°29' E 113°55'0 0.0
2015-Jun-22 13:23N 22°29' E 113°55'0 0.0
2015-Jun-22 12:23N 22°29' E 113°55'0 0.0
2015-Jun-22 11:29N 22°29' E 113°55'0 0.0
2015-Jun-22 10:29N 22°29' E 113°55'0 0.0
2015-Jun-22 09:29N 22°29' E 113°55'0 0.0
2015-Jun-22 08:33N 22°29' E 113°55'0 0.0
2015-Jun-22 07:33N 22°29' E 113°55'0 0.0
2015-Jun-22 06:33N 22°29' E 113°55'0 0.0
2015-Jun-22 05:33N 22°29' E 113°55'0 0.0
2015-Jun-22 04:33N 22°29' E 113°55'0 0.0
2015-Jun-22 03:33N 22°29' E 113°55'0 0.0
2015-Jun-22 02:33N 22°29' E 113°55'0 0.0
2015-Jun-22 01:33N 22°29' E 113°55'0 0.0
2015-Jun-22 00:33N 22°29' E 113°55'0 0.0
2015-Jun-21 23:33N 22°29' E 113°55'0 0.0
2015-Jun-21 22:33N 22°29' E 113°55'0 0.0
2015-Jun-21 21:33N 22°29' E 113°55'0 0.0
2015-Jun-21 20:33N 22°29' E 113°55'0 0.0
2015-Jun-21 19:33N 22°29' E 113°55'0 0.0
2015-Jun-21 18:33N 22°29' E 113°55'0 0.0
2015-Jun-21 17:33N 22°29' E 113°55'0 0.0
2015-Jun-21 16:33N 22°29' E 113°55'0 0.0
2015-Jun-21 15:33N 22°29' E 113°55'0 0.0
2015-Jun-21 14:33N 22°29' E 113°55'0 0.0
2015-Jun-21 13:33N 22°29' E 113°55'0 0.0
2015-Jun-21 12:33N 22°29' E 113°55'7 7.1
2015-Jun-21 11:31N 22°22' E 113°51'1919.5
2015-Jun-21 10:32N 22°10' E 113°35'1313.5
2015-Jun-21 09:33N 22°18' E 113°46'3 2.3
2015-Jun-21 08:24N 22°20' E 113°48'1616.8
2015-Jun-21 07:28N 22°10' E 113°35'2222.5
2015-Jun-21 06:28N 22°25' E 113°53'1311.2
2015-Jun-21 05:20N 22°19' E 114°05'2 2.1
2015-Jun-21 04:33N 22°20' E 114°04'1212.0
2015-Jun-21 03:33N 22°29' E 113°55'1110.5
2015-Jun-21 02:29N 22°19' E 113°48'1516.1
2015-Jun-21 01:33N 22°12' E 113°34'  
Track history (hours):
 
Tides and Currents Weather Stations Pressure Air Temp Water Temp Dewpoint Dewpoint Depression Visibility Wind Speed Wind Dir Waves Ship Positions

Xunlong5

Last reported at 2015-Jun-30 12:19 UTC. Time now 2015-Jun-30 14:28 UTC.
Position N 22°10' E 113°35'.

Length 34 m; draft 1.4 m.

Type: High speed craft. MMSI: 413471870.

Date/timePositionNaut miles runAvg speedWind from/ knotsBaromVisibWave heightAir tempDewpointWater temp
2015-Jun-30 12:19N 22°10' E 113°35'2 0.8
2015-Jun-30 09:31N 22°12' E 113°34'0 0.0
2015-Jun-30 06:33N 22°12' E 113°34'2 0.7
2015-Jun-30 03:32N 22°10' E 113°35'6 2.0
2015-Jun-30 00:34N 22°15' E 113°39'6 0.5
2015-Jun-29 12:17N 22°10' E 113°35'2 0.7
2015-Jun-29 09:28N 22°12' E 113°34'6 2.4
2015-Jun-29 07:04N 22°15' E 113°39'6 8.2
2015-Jun-29 06:21N 22°12' E 113°34'2 0.6
2015-Jun-29 03:13N 22°10' E 113°35'1 0.2
2015-Jun-29 00:21N 22°10' E 113°35'1 0.1
2015-Jun-28 12:31N 22°10' E 113°35'7 2.9
2015-Jun-28 10:12N 22°16' E 113°39'5 6.6
2015-Jun-28 09:24N 22°11' E 113°37'3 1.0
2015-Jun-28 06:17N 22°12' E 113°34'2 0.7
2015-Jun-28 03:16N 22°10' E 113°35'3 1.3
2015-Jun-28 00:31N 22°11' E 113°38'4 3.3
2015-Jun-27 23:25N 22°10' E 113°35'0 0.0
2015-Jun-27 12:24N 22°10' E 113°35'7 3.2
2015-Jun-27 10:05N 22°16' E 113°39'712.1
2015-Jun-27 09:33N 22°12' E 113°34'0 0.0
2015-Jun-27 06:31N 22°12' E 113°34'2 0.7
2015-Jun-27 03:32N 22°10' E 113°35'3 0.8
2015-Jun-27 00:26N 22°10' E 113°38'2 0.3
2015-Jun-26 17:28N 22°11' E 113°35'1 0.4
2015-Jun-26 16:06N 22°11' E 113°36'0 0.5
2015-Jun-26 15:30N 22°11' E 113°36'0 0.4
2015-Jun-26 14:30N 22°11' E 113°37'0 0.4
2015-Jun-26 13:30N 22°11' E 113°37'0 0.4
2015-Jun-26 12:26N 22°11' E 113°37'0 0.4
2015-Jun-26 11:33N 22°12' E 113°37'0 0.4
2015-Jun-26 10:33N 22°12' E 113°38'0 0.4
2015-Jun-26 09:33N 22°12' E 113°38'4 1.6
2015-Jun-26 07:03N 22°16' E 113°39'612.5
2015-Jun-26 06:32N 22°12' E 113°34'2 0.7
2015-Jun-26 03:32N 22°10' E 113°35'4 1.4
2015-Jun-26 00:32N 22°12' E 113°39'4 0.4
2015-Jun-25 12:33N 22°10' E 113°35'2221.2
2015-Jun-25 11:30N 22°25' E 113°53'4 4.4
2015-Jun-25 10:31N 22°29' E 113°55'0 0.0
2015-Jun-25 09:31N 22°29' E 113°55'1717.1
2015-Jun-25 08:30N 22°14' E 113°44'6 6.1
2015-Jun-25 07:32N 22°12' E 113°38'2323.4
2015-Jun-25 06:33N 22°29' E 113°55'1310.1
2015-Jun-25 05:15N 22°20' E 114°05'2 3.1
2015-Jun-25 04:34N 22°19' E 114°07'1515.0
2015-Jun-25 03:34N 22°29' E 113°55'2424.1
2015-Jun-25 02:33N 22°11' E 113°37'6 5.8
2015-Jun-25 01:33N 22°14' E 113°42'1917.7
2015-Jun-25 00:30N 22°29' E 113°55'0 0.1
2015-Jun-24 23:30N 22°29' E 113°55'0 0.0
2015-Jun-24 22:30N 22°29' E 113°55'0 0.0
2015-Jun-24 21:30N 22°29' E 113°55'0 0.0
2015-Jun-24 20:30N 22°29' E 113°55'0 0.0
2015-Jun-24 19:30N 22°29' E 113°55'0 0.0
2015-Jun-24 18:30N 22°29' E 113°55'0 0.0
2015-Jun-24 17:30N 22°29' E 113°55'0 0.0
2015-Jun-24 16:24N 22°29' E 113°55'0 0.0
2015-Jun-24 15:30N 22°29' E 113°55'0 0.0
2015-Jun-24 14:30N 22°29' E 113°55'0 0.0
2015-Jun-24 13:30N 22°29' E 113°55'0 0.0
2015-Jun-24 12:24N 22°29' E 113°55'0 0.0
2015-Jun-24 11:30N 22°29' E 113°55'0 0.0
2015-Jun-24 10:30N 22°29' E 113°55'0 0.0
2015-Jun-24 09:33N 22°29' E 113°55'2018.5
2015-Jun-24 08:30N 22°13' E 113°41'4 4.5
2015-Jun-24 07:34N 22°11' E 113°38'2423.6
2015-Jun-24 06:33N 22°29' E 113°55'3 2.6
2015-Jun-24 05:34N 22°26' E 113°54'2423.6
2015-Jun-24 04:32N 22°10' E 113°35'1616.3
2015-Jun-24 03:33N 22°21' E 113°48'10 9.8
2015-Jun-24 02:29N 22°29' E 113°55'0 0.0
2015-Jun-24 01:29N 22°29' E 113°55'0 0.0
2015-Jun-24 00:29N 22°29' E 113°55'0 0.0
2015-Jun-23 23:29N 22°29' E 113°55'0 0.0
2015-Jun-23 22:29N 22°29' E 113°55'0 0.0
2015-Jun-23 21:29N 22°29' E 113°55'0 0.0
2015-Jun-23 20:29N 22°29' E 113°55'0 0.0
2015-Jun-23 19:29N 22°29' E 113°55'0 0.0
2015-Jun-23 19:05N 22°29' E 113°55'0 0.0
2015-Jun-22 19:29N 22°29' E 113°55'0 0.0
2015-Jun-22 18:29N 22°29' E 113°55'0 0.0
2015-Jun-22 17:29N 22°29' E 113°55'0 0.0
2015-Jun-22 16:23N 22°29' E 113°55'0 0.0
2015-Jun-22 15:29N 22°29' E 113°55'0 0.0
2015-Jun-22 14:29N 22°29' E 113°55'0 0.0
2015-Jun-22 13:23N 22°29' E 113°55'0 0.0
2015-Jun-22 12:23N 22°29' E 113°55'0 0.0
2015-Jun-22 11:29N 22°29' E 113°55'0 0.0
2015-Jun-22 10:29N 22°29' E 113°55'0 0.0
2015-Jun-22 09:29N 22°29' E 113°55'0 0.0
2015-Jun-22 08:33N 22°29' E 113°55'0 0.0
2015-Jun-22 07:33N 22°29' E 113°55'0 0.0
2015-Jun-22 06:33N 22°29' E 113°55'0 0.0
2015-Jun-22 05:33N 22°29' E 113°55'0 0.0
2015-Jun-22 04:33N 22°29' E 113°55'0 0.0
2015-Jun-22 03:33N 22°29' E 113°55'0 0.0
2015-Jun-22 02:33N 22°29' E 113°55'0 0.0
2015-Jun-22 01:33N 22°29' E 113°55'0 0.0
2015-Jun-22 00:33N 22°29' E 113°55'0 0.0
2015-Jun-21 23:33N 22°29' E 113°55'0 0.0
2015-Jun-21 22:33N 22°29' E 113°55'0 0.0
2015-Jun-21 21:33N 22°29' E 113°55'0 0.0
2015-Jun-21 20:33N 22°29' E 113°55'0 0.0
2015-Jun-21 19:33N 22°29' E 113°55'0 0.0
2015-Jun-21 18:33N 22°29' E 113°55'0 0.0
2015-Jun-21 17:33N 22°29' E 113°55'0 0.0
2015-Jun-21 16:33N 22°29' E 113°55'0 0.0
2015-Jun-21 15:33N 22°29' E 113°55'0 0.0
2015-Jun-21 14:33N 22°29' E 113°55'0 0.0
2015-Jun-21 13:33N 22°29' E 113°55'0 0.0
2015-Jun-21 12:33N 22°29' E 113°55'7 7.1
2015-Jun-21 11:31N 22°22' E 113°51'1919.5
2015-Jun-21 10:32N 22°10' E 113°35'1313.5
2015-Jun-21 09:33N 22°18' E 113°46'3 2.3
2015-Jun-21 08:24N 22°20' E 113°48'1616.8
2015-Jun-21 07:28N 22°10' E 113°35'2222.5
2015-Jun-21 06:28N 22°25' E 113°53'1311.2
2015-Jun-21 05:20N 22°19' E 114°05'2 2.1
2015-Jun-21 04:33N 22°20' E 114°04'1212.0
2015-Jun-21 03:33N 22°29' E 113°55'1110.5
2015-Jun-21 02:29N 22°19' E 113°48'1516.1
2015-Jun-21 01:33N 22°12' E 113°34'  

Dump ship's entire track history